sensor_id;sensor_type;location;lat;lon;timestamp;P1;durP1;ratioP1;P2;durP2;ratioP2
45893;SDS011;31603;51.148;16.932;2023-07-13T00:00:05;21.55;;;7.85;;
45893;SDS011;31603;51.148;16.932;2023-07-13T00:03:31;18.33;;;7.45;;
45893;SDS011;31603;51.148;16.932;2023-07-13T00:06:56;22.48;;;8.50;;
45893;SDS011;31603;51.148;16.932;2023-07-13T00:10:21;23.98;;;8.38;;
45893;SDS011;31603;51.148;16.932;2023-07-13T00:13:48;25.20;;;8.40;;
45893;SDS011;31603;51.148;16.932;2023-07-13T00:17:14;20.42;;;8.05;;
45893;SDS011;31603;51.148;16.932;2023-07-13T00:20:39;22.25;;;8.10;;
45893;SDS011;31603;51.148;16.932;2023-07-13T00:24:05;15.57;;;6.53;;
45893;SDS011;31603;51.148;16.932;2023-07-13T00:27:31;21.98;;;8.05;;
45893;SDS011;31603;51.148;16.932;2023-07-13T00:30:58;19.95;;;7.57;;
45893;SDS011;31603;51.148;16.932;2023-07-13T00:34:23;20.52;;;7.85;;
45893;SDS011;31603;51.148;16.932;2023-07-13T00:37:48;16.33;;;8.10;;
45893;SDS011;31603;51.148;16.932;2023-07-13T00:41:13;23.17;;;8.50;;
45893;SDS011;31603;51.148;16.932;2023-07-13T00:44:38;20.75;;;8.00;;
45893;SDS011;31603;51.148;16.932;2023-07-13T00:48:27;19.67;;;7.78;;
45893;SDS011;31603;51.148;16.932;2023-07-13T00:51:57;16.27;;;7.70;;
45893;SDS011;31603;51.148;16.932;2023-07-13T00:55:23;13.93;;;7.50;;
45893;SDS011;31603;51.148;16.932;2023-07-13T00:58:49;15.52;;;7.45;;
45893;SDS011;31603;51.148;16.932;2023-07-13T01:02:16;14.13;;;7.47;;
45893;SDS011;31603;51.148;16.932;2023-07-13T01:05:42;18.67;;;8.85;;
45893;SDS011;31603;51.148;16.932;2023-07-13T01:09:09;14.65;;;7.65;;
45893;SDS011;31603;51.148;16.932;2023-07-13T01:12:35;14.10;;;7.60;;
45893;SDS011;31603;51.148;16.932;2023-07-13T01:16:02;12.27;;;7.90;;
45893;SDS011;31603;51.148;16.932;2023-07-13T01:19:32;12.93;;;7.47;;
45893;SDS011;31603;51.148;16.932;2023-07-13T01:23:02;13.33;;;7.67;;
45893;SDS011;31603;51.148;16.932;2023-07-13T01:26:27;14.23;;;7.70;;
45893;SDS011;31603;51.148;16.932;2023-07-13T01:29:53;14.05;;;7.65;;
45893;SDS011;31603;51.148;16.932;2023-07-13T01:33:18;12.75;;;7.55;;
45893;SDS011;31603;51.148;16.932;2023-07-13T01:36:44;11.35;;;6.47;;
45893;SDS011;31603;51.148;16.932;2023-07-13T01:40:11;17.83;;;8.02;;
45893;SDS011;31603;51.148;16.932;2023-07-13T01:43:36;13.98;;;7.80;;
45893;SDS011;31603;51.148;16.932;2023-07-13T01:47:01;15.15;;;7.57;;
45893;SDS011;31603;51.148;16.932;2023-07-13T01:50:27;13.57;;;8.43;;
45893;SDS011;31603;51.148;16.932;2023-07-13T01:53:51;16.10;;;8.70;;
45893;SDS011;31603;51.148;16.932;2023-07-13T01:57:18;15.23;;;8.73;;
45893;SDS011;31603;51.148;16.932;2023-07-13T02:00:43;14.70;;;7.82;;
45893;SDS011;31603;51.148;16.932;2023-07-13T02:04:08;13.35;;;7.78;;
45893;SDS011;31603;51.148;16.932;2023-07-13T02:07:33;12.68;;;7.57;;
45893;SDS011;31603;51.148;16.932;2023-07-13T02:10:59;13.55;;;7.50;;
45893;SDS011;31603;51.148;16.932;2023-07-13T02:14:26;15.13;;;8.77;;
45893;SDS011;31603;51.148;16.932;2023-07-13T02:17:50;14.77;;;9.30;;
45893;SDS011;31603;51.148;16.932;2023-07-13T02:21:17;13.98;;;8.30;;
45893;SDS011;31603;51.148;16.932;2023-07-13T02:24:42;14.38;;;8.57;;
45893;SDS011;31603;51.148;16.932;2023-07-13T02:28:09;14.68;;;8.95;;
45893;SDS011;31603;51.148;16.932;2023-07-13T02:31:35;15.32;;;9.02;;
45893;SDS011;31603;51.148;16.932;2023-07-13T02:35:00;16.25;;;8.88;;
45893;SDS011;31603;51.148;16.932;2023-07-13T02:38:25;14.65;;;8.55;;
45893;SDS011;31603;51.148;16.932;2023-07-13T02:41:51;14.20;;;8.73;;
45893;SDS011;31603;51.148;16.932;2023-07-13T02:45:16;15.68;;;8.55;;
45893;SDS011;31603;51.148;16.932;2023-07-13T02:48:42;15.32;;;9.07;;
45893;SDS011;31603;51.148;16.932;2023-07-13T02:52:07;15.15;;;8.73;;
45893;SDS011;31603;51.148;16.932;2023-07-13T02:55:32;14.45;;;7.90;;
45893;SDS011;31603;51.148;16.932;2023-07-13T02:58:58;16.35;;;9.55;;
45893;SDS011;31603;51.148;16.932;2023-07-13T03:02:23;15.93;;;8.70;;
45893;SDS011;31603;51.148;16.932;2023-07-13T03:05:57;14.77;;;8.50;;
45893;SDS011;31603;51.148;16.932;2023-07-13T03:09:23;14.68;;;8.77;;
45893;SDS011;31603;51.148;16.932;2023-07-13T03:12:48;18.95;;;9.63;;
45893;SDS011;31603;51.148;16.932;2023-07-13T03:16:14;18.10;;;9.05;;
45893;SDS011;31603;51.148;16.932;2023-07-13T03:19:39;18.02;;;8.73;;
45893;SDS011;31603;51.148;16.932;2023-07-13T03:23:05;20.55;;;10.10;;
45893;SDS011;31603;51.148;16.932;2023-07-13T03:26:30;16.52;;;9.27;;
45893;SDS011;31603;51.148;16.932;2023-07-13T03:29:55;15.93;;;8.70;;
45893;SDS011;31603;51.148;16.932;2023-07-13T03:33:25;17.13;;;9.23;;
45893;SDS011;31603;51.148;16.932;2023-07-13T03:36:53;19.27;;;9.73;;
45893;SDS011;31603;51.148;16.932;2023-07-13T03:40:19;18.48;;;9.63;;
45893;SDS011;31603;51.148;16.932;2023-07-13T03:43:44;20.17;;;9.95;;
45893;SDS011;31603;51.148;16.932;2023-07-13T03:47:17;16.60;;;8.80;;
45893;SDS011;31603;51.148;16.932;2023-07-13T03:50:42;15.95;;;9.15;;
45893;SDS011;31603;51.148;16.932;2023-07-13T03:54:07;17.40;;;9.40;;
45893;SDS011;31603;51.148;16.932;2023-07-13T03:57:33;17.40;;;9.18;;
45893;SDS011;31603;51.148;16.932;2023-07-13T04:01:00;21.15;;;9.63;;
45893;SDS011;31603;51.148;16.932;2023-07-13T04:04:26;19.10;;;9.50;;
45893;SDS011;31603;51.148;16.932;2023-07-13T04:07:51;18.50;;;9.70;;
45893;SDS011;31603;51.148;16.932;2023-07-13T04:11:17;17.27;;;8.50;;
45893;SDS011;31603;51.148;16.932;2023-07-13T04:14:44;17.02;;;8.77;;
45893;SDS011;31603;51.148;16.932;2023-07-13T04:18:09;20.08;;;8.95;;
45893;SDS011;31603;51.148;16.932;2023-07-13T04:21:35;18.52;;;6.53;;
45893;SDS011;31603;51.148;16.932;2023-07-13T04:25:00;20.38;;;5.32;;
45893;SDS011;31603;51.148;16.932;2023-07-13T04:28:25;12.23;;;5.10;;
45893;SDS011;31603;51.148;16.932;2023-07-13T04:31:51;13.75;;;5.10;;
45893;SDS011;31603;51.148;16.932;2023-07-13T04:35:18;12.80;;;5.63;;
45893;SDS011;31603;51.148;16.932;2023-07-13T04:38:43;10.63;;;5.72;;
45893;SDS011;31603;51.148;16.932;2023-07-13T04:42:08;10.05;;;5.03;;
45893;SDS011;31603;51.148;16.932;2023-07-13T04:45:33;10.10;;;5.13;;
45893;SDS011;31603;51.148;16.932;2023-07-13T04:49:01;9.65;;;4.82;;
45893;SDS011;31603;51.148;16.932;2023-07-13T04:52:25;23.33;;;6.90;;
45893;SDS011;31603;51.148;16.932;2023-07-13T04:55:51;20.45;;;6.80;;
45893;SDS011;31603;51.148;16.932;2023-07-13T04:59:15;10.20;;;5.63;;
45893;SDS011;31603;51.148;16.932;2023-07-13T05:02:43;8.40;;;5.50;;
45893;SDS011;31603;51.148;16.932;2023-07-13T05:06:09;6.55;;;5.60;;
45893;SDS011;31603;51.148;16.932;2023-07-13T05:09:34;8.45;;;5.25;;
45893;SDS011;31603;51.148;16.932;2023-07-13T05:13:00;10.55;;;6.30;;
45893;SDS011;31603;51.148;16.932;2023-07-13T05:16:26;7.90;;;5.75;;
45893;SDS011;31603;51.148;16.932;2023-07-13T05:19:51;10.23;;;5.90;;
45893;SDS011;31603;51.148;16.932;2023-07-13T05:23:23;6.82;;;5.60;;
45893;SDS011;31603;51.148;16.932;2023-07-13T05:26:48;11.15;;;6.47;;
45893;SDS011;31603;51.148;16.932;2023-07-13T05:30:14;9.57;;;6.18;;
45893;SDS011;31603;51.148;16.932;2023-07-13T05:33:39;9.00;;;5.22;;
45893;SDS011;31603;51.148;16.932;2023-07-13T05:37:04;11.73;;;6.57;;
45893;SDS011;31603;51.148;16.932;2023-07-13T05:40:31;8.48;;;5.70;;
45893;SDS011;31603;51.148;16.932;2023-07-13T05:43:56;8.32;;;5.57;;
45893;SDS011;31603;51.148;16.932;2023-07-13T05:47:21;8.93;;;6.60;;
45893;SDS011;31603;51.148;16.932;2023-07-13T05:50:46;8.98;;;5.88;;
45893;SDS011;31603;51.148;16.932;2023-07-13T05:54:10;10.75;;;4.88;;
45893;SDS011;31603;51.148;16.932;2023-07-13T05:57:37;7.82;;;5.05;;
45893;SDS011;31603;51.148;16.932;2023-07-13T06:01:04;7.40;;;5.55;;
45893;SDS011;31603;51.148;16.932;2023-07-13T06:04:29;8.32;;;6.10;;
45893;SDS011;31603;51.148;16.932;2023-07-13T06:07:54;8.85;;;5.57;;
45893;SDS011;31603;51.148;16.932;2023-07-13T06:11:20;7.47;;;5.22;;
45893;SDS011;31603;51.148;16.932;2023-07-13T06:14:46;10.82;;;5.60;;
45893;SDS011;31603;51.148;16.932;2023-07-13T06:18:13;6.88;;;4.93;;
45893;SDS011;31603;51.148;16.932;2023-07-13T06:21:38;7.65;;;4.97;;
45893;SDS011;31603;51.148;16.932;2023-07-13T06:25:04;8.70;;;4.88;;
45893;SDS011;31603;51.148;16.932;2023-07-13T06:28:29;6.82;;;4.53;;
45893;SDS011;31603;51.148;16.932;2023-07-13T06:31:55;6.70;;;5.22;;
45893;SDS011;31603;51.148;16.932;2023-07-13T06:35:22;8.55;;;5.63;;
45893;SDS011;31603;51.148;16.932;2023-07-13T06:38:47;9.35;;;5.97;;
45893;SDS011;31603;51.148;16.932;2023-07-13T06:42:12;8.63;;;6.35;;
45893;SDS011;31603;51.148;16.932;2023-07-13T06:45:40;8.52;;;6.22;;
45893;SDS011;31603;51.148;16.932;2023-07-13T06:49:07;10.35;;;6.32;;
45893;SDS011;31603;51.148;16.932;2023-07-13T06:52:32;13.60;;;7.75;;
45893;SDS011;31603;51.148;16.932;2023-07-13T06:55:57;8.52;;;6.57;;
45893;SDS011;31603;51.148;16.932;2023-07-13T06:59:22;10.70;;;6.82;;
45893;SDS011;31603;51.148;16.932;2023-07-13T07:02:47;10.52;;;7.68;;
45893;SDS011;31603;51.148;16.932;2023-07-13T07:06:15;12.43;;;8.23;;
45893;SDS011;31603;51.148;16.932;2023-07-13T07:09:40;11.25;;;8.43;;
45893;SDS011;31603;51.148;16.932;2023-07-13T07:13:06;17.63;;;11.57;;
45893;SDS011;31603;51.148;16.932;2023-07-13T07:16:31;16.67;;;12.45;;
45893;SDS011;31603;51.148;16.932;2023-07-13T07:19:56;16.63;;;11.68;;
45893;SDS011;31603;51.148;16.932;2023-07-13T07:23:22;17.45;;;12.60;;
45893;SDS011;31603;51.148;16.932;2023-07-13T07:26:47;15.10;;;13.32;;
45893;SDS011;31603;51.148;16.932;2023-07-13T07:30:13;18.08;;;13.20;;
45893;SDS011;31603;51.148;16.932;2023-07-13T07:33:38;19.92;;;13.68;;
45893;SDS011;31603;51.148;16.932;2023-07-13T07:37:03;16.23;;;10.88;;
45893;SDS011;31603;51.148;16.932;2023-07-13T07:40:29;13.88;;;9.07;;
45893;SDS011;31603;51.148;16.932;2023-07-13T07:43:54;14.02;;;7.95;;
45893;SDS011;31603;51.148;16.932;2023-07-13T07:47:21;12.52;;;9.23;;
45893;SDS011;31603;51.148;16.932;2023-07-13T07:50:46;13.65;;;8.55;;
45893;SDS011;31603;51.148;16.932;2023-07-13T07:54:12;19.08;;;8.63;;
45893;SDS011;31603;51.148;16.932;2023-07-13T07:57:39;15.35;;;8.10;;
45893;SDS011;31603;51.148;16.932;2023-07-13T08:01:05;14.77;;;7.93;;
45893;SDS011;31603;51.148;16.932;2023-07-13T08:04:32;11.40;;;7.55;;
45893;SDS011;31603;51.148;16.932;2023-07-13T08:07:57;10.27;;;7.05;;
45893;SDS011;31603;51.148;16.932;2023-07-13T08:11:22;16.45;;;7.18;;
45893;SDS011;31603;51.148;16.932;2023-07-13T08:14:50;21.23;;;7.75;;
45893;SDS011;31603;51.148;16.932;2023-07-13T08:18:15;13.68;;;5.70;;
45893;SDS011;31603;51.148;16.932;2023-07-13T08:21:40;19.20;;;6.47;;
45893;SDS011;31603;51.148;16.932;2023-07-13T08:25:06;23.35;;;6.35;;
45893;SDS011;31603;51.148;16.932;2023-07-13T08:28:36;12.65;;;5.00;;
45893;SDS011;31603;51.148;16.932;2023-07-13T08:32:03;16.35;;;5.10;;
45893;SDS011;31603;51.148;16.932;2023-07-13T08:35:29;19.13;;;5.38;;
45893;SDS011;31603;51.148;16.932;2023-07-13T08:38:54;21.23;;;5.93;;
45893;SDS011;31603;51.148;16.932;2023-07-13T08:42:22;17.55;;;5.45;;
45893;SDS011;31603;51.148;16.932;2023-07-13T08:45:53;14.77;;;5.55;;
45893;SDS011;31603;51.148;16.932;2023-07-13T08:49:21;15.18;;;5.53;;
45893;SDS011;31603;51.148;16.932;2023-07-13T08:52:51;17.98;;;5.65;;
45893;SDS011;31603;51.148;16.932;2023-07-13T08:56:19;17.10;;;5.00;;
45893;SDS011;31603;51.148;16.932;2023-07-13T08:59:46;12.88;;;4.03;;
45893;SDS011;31603;51.148;16.932;2023-07-13T09:03:19;11.05;;;4.82;;
45893;SDS011;31603;51.148;16.932;2023-07-13T09:06:55;7.53;;;4.55;;
45893;SDS011;31603;51.148;16.932;2023-07-13T09:10:28;16.00;;;4.78;;
45893;SDS011;31603;51.148;16.932;2023-07-13T09:14:04;17.52;;;5.15;;
45893;SDS011;31603;51.148;16.932;2023-07-13T09:17:49;17.80;;;4.72;;
45893;SDS011;31603;51.148;16.932;2023-07-13T09:21:18;15.35;;;4.53;;
45893;SDS011;31603;51.148;16.932;2023-07-13T09:24:50;4.93;;;2.65;;
45893;SDS011;31603;51.148;16.932;2023-07-13T09:28:20;3.72;;;2.60;;
45893;SDS011;31603;51.148;16.932;2023-07-13T09:31:53;4.10;;;2.75;;
45893;SDS011;31603;51.148;16.932;2023-07-13T09:35:20;5.80;;;2.40;;
45893;SDS011;31603;51.148;16.932;2023-07-13T09:38:52;4.10;;;2.00;;
45893;SDS011;31603;51.148;16.932;2023-07-13T09:42:21;2.53;;;1.77;;
45893;SDS011;31603;51.148;16.932;2023-07-13T09:45:47;3.35;;;1.88;;
45893;SDS011;31603;51.148;16.932;2023-07-13T09:49:13;4.80;;;2.17;;
45893;SDS011;31603;51.148;16.932;2023-07-13T09:52:42;4.95;;;1.92;;
45893;SDS011;31603;51.148;16.932;2023-07-13T09:56:19;4.85;;;2.40;;
45893;SDS011;31603;51.148;16.932;2023-07-13T09:59:49;2.35;;;1.77;;
45893;SDS011;31603;51.148;16.932;2023-07-13T10:03:22;3.80;;;1.90;;
45893;SDS011;31603;51.148;16.932;2023-07-13T10:06:52;6.13;;;2.63;;
45893;SDS011;31603;51.148;16.932;2023-07-13T10:10:32;3.85;;;1.83;;
45893;SDS011;31603;51.148;16.932;2023-07-13T10:14:01;2.67;;;1.70;;
45893;SDS011;31603;51.148;16.932;2023-07-13T10:17:27;3.90;;;1.90;;
45893;SDS011;31603;51.148;16.932;2023-07-13T10:20:58;3.25;;;1.58;;
45893;SDS011;31603;51.148;16.932;2023-07-13T10:24:27;4.70;;;1.90;;
45893;SDS011;31603;51.148;16.932;2023-07-13T10:28:03;2.88;;;1.70;;
45893;SDS011;31603;51.148;16.932;2023-07-13T10:31:33;2.60;;;1.60;;
45893;SDS011;31603;51.148;16.932;2023-07-13T10:34:59;1.75;;;1.23;;
45893;SDS011;31603;51.148;16.932;2023-07-13T10:38:30;3.20;;;1.67;;
45893;SDS011;31603;51.148;16.932;2023-07-13T10:41:57;2.00;;;1.60;;
45893;SDS011;31603;51.148;16.932;2023-07-13T10:45:28;2.85;;;1.60;;
45893;SDS011;31603;51.148;16.932;2023-07-13T10:48:56;3.45;;;1.95;;
45893;SDS011;31603;51.148;16.932;2023-07-13T10:52:39;5.03;;;2.35;;
45893;SDS011;31603;51.148;16.932;2023-07-13T10:56:10;2.65;;;2.22;;
45893;SDS011;31603;51.148;16.932;2023-07-13T10:59:44;4.07;;;2.58;;
45893;SDS011;31603;51.148;16.932;2023-07-13T11:03:16;3.65;;;1.88;;
45893;SDS011;31603;51.148;16.932;2023-07-13T11:06:47;3.58;;;2.20;;
45893;SDS011;31603;51.148;16.932;2023-07-13T11:14:01;5.30;;;1.98;;
45893;SDS011;31603;51.148;16.932;2023-07-13T11:17:37;3.55;;;1.88;;
45893;SDS011;31603;51.148;16.932;2023-07-13T11:24:48;2.75;;;1.80;;
45893;SDS011;31603;51.148;16.932;2023-07-13T11:28:15;2.70;;;1.50;;
45893;SDS011;31603;51.148;16.932;2023-07-13T11:31:52;3.22;;;1.85;;
45893;SDS011;31603;51.148;16.932;2023-07-13T11:35:30;5.20;;;2.20;;
45893;SDS011;31603;51.148;16.932;2023-07-13T11:39:05;4.53;;;2.55;;
45893;SDS011;31603;51.148;16.932;2023-07-13T11:42:31;4.82;;;1.95;;
45893;SDS011;31603;51.148;16.932;2023-07-13T11:45:58;26.95;;;3.60;;
45893;SDS011;31603;51.148;16.932;2023-07-13T11:49:41;36.00;;;4.15;;
45893;SDS011;31603;51.148;16.932;2023-07-13T11:53:08;24.13;;;2.90;;
45893;SDS011;31603;51.148;16.932;2023-07-13T11:56:41;21.63;;;2.92;;
45893;SDS011;31603;51.148;16.932;2023-07-13T12:00:11;30.88;;;3.80;;
45893;SDS011;31603;51.148;16.932;2023-07-13T12:03:44;24.30;;;3.17;;
45893;SDS011;31603;51.148;16.932;2023-07-13T12:07:14;33.70;;;4.25;;
45893;SDS011;31603;51.148;16.932;2023-07-13T12:14:12;22.95;;;3.63;;
45893;SDS011;31603;51.148;16.932;2023-07-13T12:17:38;5.55;;;2.50;;
45893;SDS011;31603;51.148;16.932;2023-07-13T12:21:10;20.23;;;3.45;;
45893;SDS011;31603;51.148;16.932;2023-07-13T12:24:38;17.88;;;2.95;;
45893;SDS011;31603;51.148;16.932;2023-07-13T12:28:19;26.15;;;3.70;;
45893;SDS011;31603;51.148;16.932;2023-07-13T12:31:45;40.13;;;7.47;;
45893;SDS011;31603;51.148;16.932;2023-07-13T12:35:20;22.70;;;5.35;;
45893;SDS011;31603;51.148;16.932;2023-07-13T12:38:47;6.30;;;2.28;;
45893;SDS011;31603;51.148;16.932;2023-07-13T12:42:22;3.15;;;1.80;;
45893;SDS011;31603;51.148;16.932;2023-07-13T12:45:55;6.50;;;2.38;;
45893;SDS011;31603;51.148;16.932;2023-07-13T12:49:27;24.52;;;3.90;;
45893;SDS011;31603;51.148;16.932;2023-07-13T12:52:59;19.20;;;2.58;;
45893;SDS011;31603;51.148;16.932;2023-07-13T12:56:32;21.23;;;2.88;;
45893;SDS011;31603;51.148;16.932;2023-07-13T12:59:58;22.30;;;3.47;;
45893;SDS011;31603;51.148;16.932;2023-07-13T13:03:26;33.72;;;5.43;;
45893;SDS011;31603;51.148;16.932;2023-07-13T13:07:00;44.35;;;7.35;;
45893;SDS011;31603;51.148;16.932;2023-07-13T13:10:30;4.35;;;1.60;;
45893;SDS011;31603;51.148;16.932;2023-07-13T13:13:57;2.45;;;1.20;;
45893;SDS011;31603;51.148;16.932;2023-07-13T13:17:32;3.33;;;1.20;;
45893;SDS011;31603;51.148;16.932;2023-07-13T13:21:01;2.33;;;1.33;;
45893;SDS011;31603;51.148;16.932;2023-07-13T13:24:27;4.88;;;1.40;;
45893;SDS011;31603;51.148;16.932;2023-07-13T13:27:52;3.25;;;1.40;;
45893;SDS011;31603;51.148;16.932;2023-07-13T13:31:18;2.28;;;1.30;;
45893;SDS011;31603;51.148;16.932;2023-07-13T13:34:44;3.50;;;1.40;;
45893;SDS011;31603;51.148;16.932;2023-07-13T13:38:11;2.00;;;1.13;;
45893;SDS011;31603;51.148;16.932;2023-07-13T13:41:46;3.25;;;1.20;;
45893;SDS011;31603;51.148;16.932;2023-07-13T13:45:11;5.10;;;1.45;;
45893;SDS011;31603;51.148;16.932;2023-07-13T13:48:42;12.40;;;2.83;;
45893;SDS011;31603;51.148;16.932;2023-07-13T13:52:08;2.08;;;0.98;;
45893;SDS011;31603;51.148;16.932;2023-07-13T13:55:35;1.63;;;0.90;;
45893;SDS011;31603;51.148;16.932;2023-07-13T13:59:02;1.67;;;1.05;;
45893;SDS011;31603;51.148;16.932;2023-07-13T14:02:28;1.67;;;0.90;;
45893;SDS011;31603;51.148;16.932;2023-07-13T14:05:54;1.52;;;0.90;;
45893;SDS011;31603;51.148;16.932;2023-07-13T14:09:20;1.42;;;0.80;;
45893;SDS011;31603;51.148;16.932;2023-07-13T14:12:50;1.85;;;0.85;;
45893;SDS011;31603;51.148;16.932;2023-07-13T14:16:19;1.75;;;0.90;;
45893;SDS011;31603;51.148;16.932;2023-07-13T14:19:47;3.78;;;1.00;;
45893;SDS011;31603;51.148;16.932;2023-07-13T14:23:13;1.48;;;0.80;;
45893;SDS011;31603;51.148;16.932;2023-07-13T14:26:39;1.23;;;0.80;;
45893;SDS011;31603;51.148;16.932;2023-07-13T14:30:07;4.03;;;1.30;;
45893;SDS011;31603;51.148;16.932;2023-07-13T14:33:35;2.53;;;1.02;;
45893;SDS011;31603;51.148;16.932;2023-07-13T14:37:00;1.92;;;0.88;;
45893;SDS011;31603;51.148;16.932;2023-07-13T14:40:29;1.55;;;1.00;;
45893;SDS011;31603;51.148;16.932;2023-07-13T14:44:13;2.45;;;1.10;;
45893;SDS011;31603;51.148;16.932;2023-07-13T14:48:22;1.20;;;0.90;;
45893;SDS011;31603;51.148;16.932;2023-07-13T14:51:50;1.75;;;0.90;;
45893;SDS011;31603;51.148;16.932;2023-07-13T14:55:17;2.42;;;1.05;;
45893;SDS011;31603;51.148;16.932;2023-07-13T14:58:42;1.83;;;0.93;;
45893;SDS011;31603;51.148;16.932;2023-07-13T15:02:14;2.47;;;1.05;;
45893;SDS011;31603;51.148;16.932;2023-07-13T15:05:47;5.68;;;1.38;;
45893;SDS011;31603;51.148;16.932;2023-07-13T15:09:20;3.80;;;1.73;;
45893;SDS011;31603;51.148;16.932;2023-07-13T15:12:46;6.18;;;1.55;;
45893;SDS011;31603;51.148;16.932;2023-07-13T15:16:15;13.48;;;2.45;;
45893;SDS011;31603;51.148;16.932;2023-07-13T15:19:48;24.50;;;3.63;;
45893;SDS011;31603;51.148;16.932;2023-07-13T15:23:18;22.77;;;3.42;;
45893;SDS011;31603;51.148;16.932;2023-07-13T15:26:43;42.53;;;6.97;;
45893;SDS011;31603;51.148;16.932;2023-07-13T15:30:09;2.17;;;1.38;;
45893;SDS011;31603;51.148;16.932;2023-07-13T15:33:43;2.10;;;1.30;;
45893;SDS011;31603;51.148;16.932;2023-07-13T15:37:13;3.95;;;1.58;;
45893;SDS011;31603;51.148;16.932;2023-07-13T15:40:41;1.95;;;1.58;;
45893;SDS011;31603;51.148;16.932;2023-07-13T15:44:12;2.20;;;1.10;;
45893;SDS011;31603;51.148;16.932;2023-07-13T15:47:47;2.22;;;1.02;;
45893;SDS011;31603;51.148;16.932;2023-07-13T15:51:15;2.85;;;1.20;;
45893;SDS011;31603;51.148;16.932;2023-07-13T15:54:44;3.13;;;1.20;;
45893;SDS011;31603;51.148;16.932;2023-07-13T15:58:11;19.20;;;4.30;;
45893;SDS011;31603;51.148;16.932;2023-07-13T16:01:38;31.73;;;5.82;;
45893;SDS011;31603;51.148;16.932;2023-07-13T16:05:04;32.47;;;4.55;;
45893;SDS011;31603;51.148;16.932;2023-07-13T16:08:34;13.95;;;4.00;;
45893;SDS011;31603;51.148;16.932;2023-07-13T16:11:59;16.88;;;3.08;;
45893;SDS011;31603;51.148;16.932;2023-07-13T16:15:25;6.57;;;1.95;;
45893;SDS011;31603;51.148;16.932;2023-07-13T16:18:53;14.75;;;2.88;;
45893;SDS011;31603;51.148;16.932;2023-07-13T16:22:21;8.15;;;2.45;;
45893;SDS011;31603;51.148;16.932;2023-07-13T16:25:49;2.97;;;1.90;;
45893;SDS011;31603;51.148;16.932;2023-07-13T16:29:15;2.30;;;1.50;;
45893;SDS011;31603;51.148;16.932;2023-07-13T16:32:46;2.30;;;1.48;;
45893;SDS011;31603;51.148;16.932;2023-07-13T16:36:14;3.25;;;1.60;;
45893;SDS011;31603;51.148;16.932;2023-07-13T16:39:41;1.80;;;1.30;;
45893;SDS011;31603;51.148;16.932;2023-07-13T16:43:10;3.42;;;1.73;;
45893;SDS011;31603;51.148;16.932;2023-07-13T16:46:42;2.28;;;2.00;;
45893;SDS011;31603;51.148;16.932;2023-07-13T16:50:13;5.18;;;2.33;;
45893;SDS011;31603;51.148;16.932;2023-07-13T16:53:40;3.78;;;2.38;;
45893;SDS011;31603;51.148;16.932;2023-07-13T16:57:11;4.18;;;2.35;;
45893;SDS011;31603;51.148;16.932;2023-07-13T17:00:39;5.40;;;2.20;;
45893;SDS011;31603;51.148;16.932;2023-07-13T17:04:07;4.57;;;2.10;;
45893;SDS011;31603;51.148;16.932;2023-07-13T17:07:35;2.73;;;2.13;;
45893;SDS011;31603;51.148;16.932;2023-07-13T17:11:01;2.55;;;1.70;;
45893;SDS011;31603;51.148;16.932;2023-07-13T17:14:31;5.68;;;1.83;;
45893;SDS011;31603;51.148;16.932;2023-07-13T17:17:58;2.78;;;2.00;;
45893;SDS011;31603;51.148;16.932;2023-07-13T17:21:23;3.85;;;1.80;;
45893;SDS011;31603;51.148;16.932;2023-07-13T17:24:49;3.67;;;1.90;;
45893;SDS011;31603;51.148;16.932;2023-07-13T17:28:18;3.17;;;1.80;;
45893;SDS011;31603;51.148;16.932;2023-07-13T17:31:44;2.95;;;1.83;;
45893;SDS011;31603;51.148;16.932;2023-07-13T17:35:24;4.68;;;2.55;;
45893;SDS011;31603;51.148;16.932;2023-07-13T17:38:49;3.33;;;1.90;;
45893;SDS011;31603;51.148;16.932;2023-07-13T17:42:17;2.95;;;1.63;;
45893;SDS011;31603;51.148;16.932;2023-07-13T17:45:42;4.35;;;2.00;;
45893;SDS011;31603;51.148;16.932;2023-07-13T17:49:15;4.38;;;1.80;;
45893;SDS011;31603;51.148;16.932;2023-07-13T17:52:41;3.42;;;1.90;;
45893;SDS011;31603;51.148;16.932;2023-07-13T17:56:08;3.42;;;1.95;;
45893;SDS011;31603;51.148;16.932;2023-07-13T17:59:34;3.80;;;1.77;;
45893;SDS011;31603;51.148;16.932;2023-07-13T18:03:03;3.20;;;1.73;;
45893;SDS011;31603;51.148;16.932;2023-07-13T18:06:33;6.20;;;2.20;;
45893;SDS011;31603;51.148;16.932;2023-07-13T18:09:59;6.30;;;3.05;;
45893;SDS011;31603;51.148;16.932;2023-07-13T18:13:25;6.53;;;2.40;;
45893;SDS011;31603;51.148;16.932;2023-07-13T18:16:51;5.03;;;2.22;;
45893;SDS011;31603;51.148;16.932;2023-07-13T18:20:17;5.82;;;2.28;;
45893;SDS011;31603;51.148;16.932;2023-07-13T18:23:45;5.57;;;2.70;;
45893;SDS011;31603;51.148;16.932;2023-07-13T18:27:11;5.72;;;2.47;;
45893;SDS011;31603;51.148;16.932;2023-07-13T18:30:38;6.30;;;2.50;;
45893;SDS011;31603;51.148;16.932;2023-07-13T18:34:03;7.07;;;2.60;;
45893;SDS011;31603;51.148;16.932;2023-07-13T18:37:29;5.55;;;3.20;;
45893;SDS011;31603;51.148;16.932;2023-07-13T18:40:58;3.67;;;3.10;;
45893;SDS011;31603;51.148;16.932;2023-07-13T18:44:25;4.95;;;2.03;;
45893;SDS011;31603;51.148;16.932;2023-07-13T18:47:51;4.45;;;2.45;;
45893;SDS011;31603;51.148;16.932;2023-07-13T18:51:18;6.47;;;2.65;;
45893;SDS011;31603;51.148;16.932;2023-07-13T18:54:45;4.22;;;2.78;;
45893;SDS011;31603;51.148;16.932;2023-07-13T18:58:11;6.80;;;4.25;;
45893;SDS011;31603;51.148;16.932;2023-07-13T19:01:37;5.00;;;3.03;;
45893;SDS011;31603;51.148;16.932;2023-07-13T19:05:02;4.43;;;2.60;;
45893;SDS011;31603;51.148;16.932;2023-07-13T19:08:30;4.68;;;2.63;;
45893;SDS011;31603;51.148;16.932;2023-07-13T19:11:58;5.78;;;3.63;;
45893;SDS011;31603;51.148;16.932;2023-07-13T19:15:51;7.78;;;2.67;;
45893;SDS011;31603;51.148;16.932;2023-07-13T19:26:39;6.47;;;3.05;;
45893;SDS011;31603;51.148;16.932;2023-07-13T19:30:08;6.50;;;3.05;;
45893;SDS011;31603;51.148;16.932;2023-07-13T19:33:42;7.47;;;3.08;;
45893;SDS011;31603;51.148;16.932;2023-07-13T19:37:12;5.32;;;2.78;;
45893;SDS011;31603;51.148;16.932;2023-07-13T19:40:41;4.93;;;3.30;;
45893;SDS011;31603;51.148;16.932;2023-07-13T19:44:08;6.15;;;3.15;;
45893;SDS011;31603;51.148;16.932;2023-07-13T19:47:41;5.45;;;3.08;;
45893;SDS011;31603;51.148;16.932;2023-07-13T19:51:07;6.50;;;3.28;;
45893;SDS011;31603;51.148;16.932;2023-07-13T19:54:37;6.15;;;3.65;;
45893;SDS011;31603;51.148;16.932;2023-07-13T19:58:05;7.50;;;4.13;;
45893;SDS011;31603;51.148;16.932;2023-07-13T20:01:45;6.40;;;3.00;;
45893;SDS011;31603;51.148;16.932;2023-07-13T20:05:12;6.25;;;3.22;;
45893;SDS011;31603;51.148;16.932;2023-07-13T20:08:46;5.70;;;3.80;;
45893;SDS011;31603;51.148;16.932;2023-07-13T20:12:14;5.75;;;4.18;;
45893;SDS011;31603;51.148;16.932;2023-07-13T20:15:41;7.57;;;3.60;;
45893;SDS011;31603;51.148;16.932;2023-07-13T20:19:09;4.05;;;3.08;;
45893;SDS011;31603;51.148;16.932;2023-07-13T20:22:43;4.05;;;2.90;;
45893;SDS011;31603;51.148;16.932;2023-07-13T20:26:08;3.47;;;2.40;;
45893;SDS011;31603;51.148;16.932;2023-07-13T20:29:34;6.72;;;3.53;;
45893;SDS011;31603;51.148;16.932;2023-07-13T20:33:00;5.38;;;3.33;;
45893;SDS011;31603;51.148;16.932;2023-07-13T20:36:28;4.85;;;3.20;;
45893;SDS011;31603;51.148;16.932;2023-07-13T20:39:58;3.88;;;3.40;;
45893;SDS011;31603;51.148;16.932;2023-07-13T20:43:23;4.38;;;3.17;;